createdAt,value
2022-12-20T00:01:56.607Z,79.52
2022-12-20T00:04:25.085Z,79.08
2022-12-20T00:06:53.507Z,79.29
2022-12-20T00:09:24.763Z,79.71
2022-12-20T00:11:53.198Z,79.09
2022-12-20T00:14:21.614Z,79.09
2022-12-20T00:16:50.011Z,76.74
2022-12-20T00:19:18.366Z,75.20
2022-12-20T00:21:46.711Z,73.18
2022-12-20T00:24:18.137Z,75.84
2022-12-20T00:26:49.128Z,73.78
2022-12-20T00:29:17.702Z,75.23
2022-12-20T00:31:46.225Z,75.65
2022-12-20T00:34:14.792Z,73.75
2022-12-20T00:36:43.173Z,71.96
2022-12-20T00:39:12.153Z,71.88
2022-12-20T00:41:40.568Z,73.94
2022-12-20T00:44:08.915Z,72.98
2022-12-20T00:46:37.585Z,74.51
2022-12-20T00:49:06.001Z,73.91
2022-12-20T00:51:34.473Z,72.26
2022-12-20T00:54:02.875Z,73.02
2022-12-20T00:56:31.280Z,72.88
2022-12-20T00:59:01.116Z,73.33
2022-12-20T01:01:35.679Z,71.83
2022-12-20T01:04:05.136Z,72.46
2022-12-20T01:06:33.951Z,72.63
2022-12-20T01:09:02.771Z,72.02
2022-12-20T01:11:34.025Z,71.94
2022-12-20T01:14:06.068Z,71.53
2022-12-20T01:16:44.633Z,72.15
2022-12-20T01:19:15.932Z,72.56
2022-12-20T01:21:47.532Z,72.91
2022-12-20T01:24:21.030Z,71.99
2022-12-20T01:26:49.815Z,70.60
2022-12-20T01:29:19.336Z,70.99
2022-12-20T01:31:47.707Z,71.05
2022-12-20T01:34:16.347Z,71.36
2022-12-20T01:36:45.070Z,69.55
2022-12-20T01:39:16.730Z,69.40
2022-12-20T01:41:46.665Z,69.97
2022-12-20T01:44:18.147Z,69.07
2022-12-20T01:46:52.600Z,69.02
2022-12-20T01:49:49.340Z,69.15
2022-12-20T01:52:24.301Z,68.78
2022-12-20T01:55:03.746Z,68.87
2022-12-20T01:57:52.804Z,68.21
2022-12-20T02:00:21.566Z,68.40
2022-12-20T02:02:51.428Z,68.25
2022-12-20T02:05:22.441Z,68.49
2022-12-20T02:07:55.403Z,67.63
2022-12-20T02:10:28.417Z,68.42
2022-12-20T02:13:08.939Z,67.29
2022-12-20T02:15:56.713Z,67.44
2022-12-20T02:18:29.119Z,67.51
2022-12-20T02:21:24.324Z,67.24
2022-12-20T02:24:11.133Z,66.93
2022-12-20T02:27:27.374Z,66.81
2022-12-20T02:30:08.827Z,67.10
2022-12-20T02:32:51.992Z,66.31
2022-12-20T02:35:35.540Z,65.57
2022-12-20T02:38:26.364Z,66.43
2022-12-20T02:41:10.595Z,65.91
2022-12-20T02:44:01.251Z,65.33
2022-12-20T02:46:30.403Z,65.40
2022-12-20T02:49:04.649Z,65.00
2022-12-20T02:51:34.490Z,64.94
2022-12-20T02:54:03.739Z,64.78
2022-12-20T02:56:48.359Z,64.23
2022-12-20T02:59:22.587Z,63.84
2022-12-20T03:01:56.834Z,62.82
2022-12-20T03:04:29.209Z,63.56
2022-12-20T03:07:03.778Z,63.74
2022-12-20T03:09:33.992Z,63.11
2022-12-20T03:12:02.566Z,62.80
2022-12-20T03:14:31.031Z,62.40
2022-12-20T03:16:59.692Z,61.74
2022-12-20T03:19:28.232Z,62.71
2022-12-20T03:21:56.739Z,62.32
2022-12-20T03:24:25.186Z,60.98
2022-12-20T03:26:53.591Z,59.84
2022-12-20T03:29:21.943Z,61.42
2022-12-20T03:31:50.310Z,60.70
2022-12-20T03:34:18.697Z,60.38
2022-12-20T03:36:47.042Z,60.54
2022-12-20T03:39:15.398Z,59.56
2022-12-20T03:41:43.747Z,59.37
2022-12-20T03:44:12.098Z,58.50
2022-12-20T03:46:41.597Z,59.28
2022-12-20T03:49:09.973Z,56.60
2022-12-20T03:51:38.330Z,57.04
2022-12-20T03:54:06.701Z,58.65
2022-12-20T03:56:35.067Z,57.79
2022-12-20T03:59:03.630Z,57.02
2022-12-20T04:01:32.177Z,58.04
2022-12-20T04:04:00.635Z,56.04
2022-12-20T04:06:29.081Z,55.82
2022-12-20T04:08:57.559Z,56.71
2022-12-20T04:11:25.935Z,55.79
2022-12-20T04:13:55.624Z,55.32
2022-12-20T04:16:30.289Z,55.67
2022-12-20T04:18:58.747Z,53.03
2022-12-20T04:21:32.478Z,53.20
2022-12-20T04:24:02.895Z,54.29
2022-12-20T04:26:31.736Z,53.20
2022-12-20T04:29:00.257Z,54.25
2022-12-20T04:31:28.749Z,53.73
2022-12-20T04:33:57.200Z,53.82
2022-12-20T04:36:25.982Z,50.53
2022-12-20T04:38:54.978Z,53.09
2022-12-20T04:41:23.410Z,52.75
2022-12-20T04:43:57.947Z,49.43
2022-12-20T04:46:27.255Z,52.05
2022-12-20T04:48:57.702Z,52.44
2022-12-20T04:51:27.086Z,51.64
2022-12-20T04:53:56.351Z,49.94
2022-12-20T04:56:28.800Z,50.68
2022-12-20T04:58:59.604Z,50.29
2022-12-20T05:01:28.435Z,48.82
2022-12-20T05:03:57.188Z,50.81
2022-12-20T05:06:25.824Z,49.62
2022-12-20T05:08:55.948Z,49.74
2022-12-20T05:11:24.294Z,50.50
2022-12-20T05:13:52.657Z,50.53
2022-12-20T05:16:21.110Z,50.52
2022-12-20T05:18:49.882Z,50.01
2022-12-20T05:21:37.130Z,51.26
2022-12-20T05:24:24.220Z,49.61
2022-12-20T05:26:52.632Z,50.15
2022-12-20T05:29:21.129Z,49.20
2022-12-20T05:31:49.668Z,46.73
2022-12-20T05:34:18.539Z,49.04
2022-12-20T05:36:47.054Z,47.94
2022-12-20T05:39:15.597Z,48.09
2022-12-20T05:41:43.960Z,49.09
2022-12-20T05:44:12.305Z,48.58
2022-12-20T05:46:40.759Z,49.63
2022-12-20T05:49:09.215Z,48.61
2022-12-20T05:51:37.612Z,49.94
2022-12-20T05:54:06.671Z,48.97
2022-12-20T05:56:35.006Z,48.63
2022-12-20T05:59:03.365Z,47.79
2022-12-20T06:01:32.035Z,48.03
2022-12-20T06:04:00.610Z,48.26
2022-12-20T06:06:29.093Z,48.49
2022-12-20T06:08:57.432Z,47.95
2022-12-20T06:11:29.867Z,47.70
2022-12-20T06:13:58.849Z,48.30
2022-12-20T06:16:27.289Z,48.10
2022-12-20T06:18:55.998Z,46.46
2022-12-20T06:21:24.661Z,47.84
2022-12-20T06:23:52.992Z,47.38
2022-12-20T06:26:21.720Z,45.87
2022-12-20T06:28:53.521Z,44.43
2022-12-20T06:31:22.231Z,45.70
2022-12-20T06:33:50.637Z,46.24
2022-12-20T06:36:18.996Z,45.68
2022-12-20T06:38:47.369Z,47.17
2022-12-20T06:41:15.720Z,46.61
2022-12-20T06:43:44.085Z,44.43
2022-12-20T06:46:12.572Z,45.71
2022-12-20T06:48:41.088Z,46.37
2022-12-20T06:51:09.535Z,45.38
2022-12-20T06:53:38.019Z,45.11
2022-12-20T06:56:06.773Z,45.24
2022-12-20T06:58:35.117Z,45.73
2022-12-20T07:01:03.563Z,45.92
2022-12-20T07:03:32.042Z,46.66
2022-12-20T07:06:00.701Z,47.59
2022-12-20T07:08:29.587Z,46.13
2022-12-20T07:10:58.096Z,46.84
2022-12-20T07:13:26.472Z,45.59
2022-12-20T07:16:03.136Z,46.54
2022-12-20T07:18:31.776Z,45.88
2022-12-20T07:21:02.698Z,45.75
2022-12-20T07:23:31.490Z,45.52
2022-12-20T07:26:02.034Z,45.46
2022-12-20T07:28:31.186Z,44.56
2022-12-20T07:31:03.608Z,44.98
2022-12-20T07:33:32.764Z,44.37
2022-12-20T07:36:13.302Z,44.42
2022-12-20T07:38:41.759Z,45.09
2022-12-20T07:41:15.285Z,45.21
2022-12-20T07:43:44.203Z,45.75
2022-12-20T07:46:15.341Z,45.09
2022-12-20T07:48:45.523Z,45.09
2022-12-20T07:51:19.105Z,44.95
2022-12-20T07:53:52.785Z,45.63
2022-12-20T07:56:23.552Z,45.97
2022-12-20T07:58:59.456Z,44.85
2022-12-20T08:01:31.463Z,46.33
2022-12-20T08:04:13.822Z,45.58
2022-12-20T08:06:43.808Z,43.88
2022-12-20T08:09:14.453Z,44.68
2022-12-20T08:11:48.355Z,45.07
2022-12-20T08:14:18.691Z,44.91
2022-12-20T08:16:47.562Z,44.55
2022-12-20T08:19:16.017Z,44.24
2022-12-20T08:21:44.359Z,43.54
2022-12-20T08:24:12.820Z,45.09
2022-12-20T08:26:42.695Z,45.65
2022-12-20T08:29:11.625Z,45.59
2022-12-20T08:31:47.636Z,44.96
2022-12-20T08:34:18.581Z,45.10
2022-12-20T08:36:47.034Z,44.26
2022-12-20T08:39:15.553Z,44.06
2022-12-20T08:41:44.042Z,44.57
2022-12-20T08:44:12.458Z,44.65
2022-12-20T08:46:40.972Z,43.73
2022-12-20T08:49:09.634Z,44.25
2022-12-20T08:51:38.043Z,45.06
2022-12-20T08:54:06.597Z,44.56
2022-12-20T08:56:35.130Z,44.33
2022-12-20T08:59:03.488Z,44.44
2022-12-20T09:01:34.655Z,45.23
2022-12-20T09:04:03.325Z,44.41
2022-12-20T09:06:32.363Z,44.99
2022-12-20T09:09:01.559Z,45.43
2022-12-20T09:11:30.087Z,44.23
2022-12-20T09:14:00.134Z,43.92
2022-12-20T09:16:32.914Z,45.30
2022-12-20T09:19:05.918Z,45.58
2022-12-20T09:21:36.090Z,44.41
2022-12-20T09:24:04.661Z,44.16
2022-12-20T09:26:33.475Z,44.28
2022-12-20T09:29:03.024Z,45.25
2022-12-20T09:31:31.484Z,44.47
2022-12-20T09:34:01.419Z,44.93
2022-12-20T09:36:31.450Z,44.98
2022-12-20T09:38:59.877Z,46.03
2022-12-20T09:41:30.876Z,45.64
2022-12-20T09:44:01.335Z,46.36
2022-12-20T09:46:29.897Z,46.22
2022-12-20T09:48:59.192Z,44.97
2022-12-20T09:51:42.376Z,44.54
2022-12-20T09:54:53.577Z,46.15
2022-12-20T09:57:46.139Z,45.94
2022-12-20T10:00:16.892Z,45.44
2022-12-20T10:03:09.389Z,45.37
2022-12-20T10:06:00.470Z,46.14
2022-12-20T10:08:58.265Z,46.39
2022-12-20T10:11:49.899Z,45.71
2022-12-20T10:14:47.366Z,46.97
2022-12-20T10:17:39.728Z,46.85
2022-12-20T10:20:29.539Z,46.47
2022-12-20T10:23:04.485Z,46.89
2022-12-20T10:25:35.001Z,46.94
2022-12-20T10:28:16.174Z,47.25
2022-12-20T10:30:45.127Z,47.13
2022-12-20T10:33:21.986Z,47.27
2022-12-20T10:35:51.914Z,47.32
2022-12-20T10:38:21.712Z,47.41
2022-12-20T10:41:20.706Z,47.67
2022-12-20T10:44:03.864Z,47.85
2022-12-20T10:46:52.605Z,48.28
2022-12-20T10:49:24.294Z,48.16
2022-12-20T10:51:58.475Z,48.48
2022-12-20T10:54:43.106Z,48.12
2022-12-20T10:57:25.519Z,48.42
2022-12-20T11:00:06.583Z,48.56
2022-12-20T11:02:42.403Z,49.09
2022-12-20T11:05:15.398Z,49.17
2022-12-20T11:08:34.063Z,52.05
2022-12-20T11:11:32.140Z,55.46
2022-12-20T11:14:15.920Z,55.72
2022-12-20T11:16:48.741Z,55.24
2022-12-20T11:19:35.382Z,53.41
2022-12-20T11:22:06.895Z,52.95
2022-12-20T11:24:51.067Z,52.87
2022-12-20T11:27:33.495Z,53.19
2022-12-20T11:30:22.581Z,54.96
2022-12-20T11:33:13.392Z,58.48
2022-12-20T11:35:48.282Z,60.46
2022-12-20T11:38:26.762Z,60.51
2022-12-20T11:41:21.999Z,60.74
2022-12-20T11:44:27.740Z,61.79
2022-12-20T11:46:56.423Z,62.34
2022-12-20T11:49:33.587Z,63.59
2022-12-20T11:52:12.651Z,62.27
2022-12-20T11:54:56.084Z,61.05
2022-12-20T11:57:54.943Z,61.06
2022-12-20T12:00:23.691Z,60.65
2022-12-20T12:03:03.164Z,60.82
2022-12-20T12:05:37.524Z,61.38
2022-12-20T12:08:18.152Z,64.84
2022-12-20T12:10:59.732Z,65.84
2022-12-20T12:13:31.717Z,66.04
2022-12-20T12:16:06.837Z,65.97
2022-12-20T12:18:37.096Z,65.06
2022-12-20T12:21:12.045Z,63.59
2022-12-20T12:23:46.092Z,62.41
2022-12-20T12:26:22.203Z,62.23
2022-12-20T12:29:01.861Z,61.99
2022-12-20T12:31:44.001Z,63.23
2022-12-20T12:34:44.509Z,65.10
2022-12-20T12:37:36.821Z,67.57
2022-12-20T12:40:17.832Z,67.44
2022-12-20T12:43:04.462Z,67.26
2022-12-20T12:45:49.967Z,66.01
2022-12-20T12:48:21.476Z,65.58
2022-12-20T12:50:55.032Z,66.17
2022-12-20T12:53:38.199Z,66.94
2022-12-20T12:56:47.028Z,66.62
2022-12-20T12:59:25.102Z,65.14
2022-12-20T13:01:57.951Z,65.35
2022-12-20T13:04:49.320Z,65.75
2022-12-20T13:07:48.574Z,65.34
2022-12-20T13:10:16.797Z,65.60
2022-12-20T13:12:56.701Z,67.67
2022-12-20T13:15:24.942Z,68.48
2022-12-20T13:17:59.281Z,67.61
2022-12-20T13:20:30.459Z,67.14
2022-12-20T13:23:13.913Z,67.51
2022-12-20T13:25:43.751Z,67.56
2022-12-20T13:28:24.417Z,67.78
2022-12-20T13:31:05.760Z,68.13
2022-12-20T13:33:44.300Z,68.04
2022-12-20T13:36:12.590Z,68.28
2022-12-20T13:38:49.759Z,68.49
2022-12-20T13:41:35.293Z,68.80
2022-12-20T13:44:36.148Z,69.04
2022-12-20T13:47:58.327Z,69.38
2022-12-20T13:50:41.676Z,69.39
2022-12-20T13:53:23.125Z,69.62
2022-12-20T13:55:51.675Z,69.87
2022-12-20T13:58:31.547Z,70.60
2022-12-20T14:01:14.304Z,69.60
2022-12-20T14:03:47.290Z,70.15
2022-12-20T14:06:22.933Z,70.36
2022-12-20T14:08:54.650Z,70.40
2022-12-20T14:11:27.889Z,70.45
2022-12-20T14:14:02.327Z,71.38
2022-12-20T14:16:33.160Z,70.94
2022-12-20T14:19:07.578Z,70.91
2022-12-20T14:21:43.861Z,71.77
2022-12-20T14:24:22.892Z,72.26
2022-12-20T14:26:54.748Z,73.06
2022-12-20T14:29:31.380Z,73.27
2022-12-20T14:31:59.896Z,73.30
2022-12-20T14:34:36.602Z,72.61
2022-12-20T14:37:32.316Z,72.41
2022-12-20T14:40:06.685Z,72.64
2022-12-20T14:42:40.600Z,72.36
2022-12-20T14:45:11.924Z,72.39
2022-12-20T14:47:50.034Z,72.78
2022-12-20T14:50:35.042Z,72.85
2022-12-20T14:53:04.170Z,73.84
2022-12-20T14:55:38.729Z,73.86
2022-12-20T14:58:27.458Z,74.00
2022-12-20T15:01:17.350Z,74.34
2022-12-20T15:04:00.222Z,74.16
2022-12-20T15:06:41.024Z,74.93
2022-12-20T15:09:09.783Z,75.12
2022-12-20T15:11:39.536Z,74.59
2022-12-20T15:14:22.712Z,74.19
2022-12-20T15:16:51.237Z,74.32
2022-12-20T15:19:19.531Z,74.01
2022-12-20T15:21:48.266Z,74.32
2022-12-20T15:24:22.686Z,75.33
2022-12-20T15:26:51.379Z,75.82
2022-12-20T15:29:22.423Z,76.77
2022-12-20T15:31:52.663Z,76.74
2022-12-20T15:34:39.129Z,76.83
2022-12-20T15:37:09.318Z,77.80
2022-12-20T15:39:42.825Z,77.00
2022-12-20T15:42:19.733Z,77.08
2022-12-20T15:44:48.440Z,76.92
2022-12-20T15:47:17.871Z,76.28
2022-12-20T15:49:50.174Z,76.39
2022-12-20T15:52:24.542Z,76.56
2022-12-20T15:54:52.980Z,76.91
2022-12-20T15:57:21.839Z,77.47
2022-12-20T16:00:02.217Z,77.66
2022-12-20T16:02:32.002Z,77.45
2022-12-20T16:05:00.719Z,77.47
2022-12-20T16:07:29.237Z,77.92
2022-12-20T16:09:57.597Z,77.10
2022-12-20T16:12:27.524Z,77.05
2022-12-20T16:14:56.620Z,76.86
2022-12-20T16:17:25.184Z,77.42
2022-12-20T16:19:53.582Z,77.25
2022-12-20T16:22:24.905Z,77.15
2022-12-20T16:24:53.346Z,77.98
2022-12-20T16:27:22.039Z,77.67
2022-12-20T16:29:50.344Z,77.71
2022-12-20T16:32:22.516Z,77.68
2022-12-20T16:34:51.967Z,77.98
2022-12-20T16:37:20.702Z,78.22
2022-12-20T16:39:49.714Z,77.50
2022-12-20T16:42:23.644Z,75.07
2022-12-20T16:44:55.629Z,74.57
2022-12-20T16:47:24.235Z,74.97
2022-12-20T16:49:53.760Z,74.56
2022-12-20T16:52:23.712Z,74.78
2022-12-20T16:54:52.552Z,73.36
2022-12-20T16:57:22.294Z,73.07
2022-12-20T16:59:50.966Z,73.27
2022-12-20T17:02:39.531Z,73.60
2022-12-20T17:05:08.499Z,73.11
2022-12-20T17:07:41.223Z,73.14
2022-12-20T17:10:11.269Z,74.42
2022-12-20T17:12:39.632Z,72.99
2022-12-20T17:15:12.228Z,72.64
2022-12-20T17:17:40.604Z,73.18
2022-12-20T17:20:09.476Z,74.18
2022-12-20T17:25:32.003Z,73.72
2022-12-20T17:28:00.299Z,73.35
2022-12-20T17:30:28.792Z,71.48
2022-12-20T17:32:57.130Z,72.28
2022-12-20T17:35:31.865Z,72.52
2022-12-20T17:38:01.427Z,71.21
2022-12-20T17:40:30.180Z,71.61
2022-12-20T17:42:58.499Z,72.05
2022-12-20T17:45:33.811Z,72.81
2022-12-20T17:48:02.251Z,72.48
2022-12-20T17:50:30.573Z,72.04
2022-12-20T17:52:58.916Z,71.11
2022-12-20T17:55:29.424Z,71.29
2022-12-20T17:57:57.777Z,70.38
2022-12-20T18:00:39.247Z,71.81
2022-12-20T18:03:08.965Z,71.75
2022-12-20T18:05:41.822Z,70.37
2022-12-20T18:08:10.155Z,71.74
2022-12-20T18:10:38.433Z,70.84
2022-12-20T18:13:06.715Z,72.01
2022-12-20T18:15:35.020Z,71.84
2022-12-20T18:18:03.397Z,72.02
2022-12-20T18:20:31.723Z,72.79
2022-12-20T18:23:00.022Z,72.51
2022-12-20T18:25:28.347Z,72.46
2022-12-20T18:27:57.220Z,72.12
2022-12-20T18:30:25.514Z,72.92
2022-12-20T18:32:53.894Z,72.00
2022-12-20T18:35:22.184Z,73.18
2022-12-20T18:37:50.456Z,70.49
2022-12-20T18:40:18.952Z,71.11
2022-12-20T18:42:47.214Z,72.55
2022-12-20T18:45:15.521Z,72.51
2022-12-20T18:47:43.889Z,72.84
2022-12-20T18:50:14.217Z,73.50
2022-12-20T18:52:47.117Z,72.77
2022-12-20T18:55:16.580Z,73.36
2022-12-20T18:57:44.962Z,68.73
2022-12-20T19:00:13.948Z,70.48
2022-12-20T19:02:42.445Z,69.53
2022-12-20T19:05:10.962Z,70.21
2022-12-20T19:07:39.292Z,72.19
2022-12-20T19:10:08.227Z,71.87
2022-12-20T19:12:36.516Z,71.84
2022-12-20T19:15:04.986Z,71.54
2022-12-20T19:17:33.314Z,73.35
2022-12-20T19:20:01.579Z,71.99
2022-12-20T19:22:29.884Z,73.20
2022-12-20T19:24:58.850Z,73.32
2022-12-20T19:27:27.153Z,74.35
2022-12-20T19:29:55.604Z,74.53
2022-12-20T19:32:26.008Z,76.14
2022-12-20T19:34:54.310Z,75.46
2022-12-20T19:37:22.644Z,76.49
2022-12-20T19:39:50.944Z,76.25
2022-12-20T19:42:24.345Z,76.37
2022-12-20T19:44:53.893Z,76.03
2022-12-20T19:47:22.561Z,76.22
2022-12-20T19:49:51.181Z,76.47
2022-12-20T19:52:24.790Z,76.71
2022-12-20T19:54:56.575Z,77.16
2022-12-20T19:57:25.196Z,77.59
2022-12-20T19:59:56.041Z,75.70
2022-12-20T20:02:24.781Z,78.45
2022-12-20T20:04:53.330Z,79.17
2022-12-20T20:07:21.701Z,78.94
2022-12-20T20:09:50.266Z,78.71
2022-12-20T20:12:18.828Z,79.29
2022-12-20T20:14:47.160Z,79.36
2022-12-20T20:17:15.511Z,79.62
2022-12-20T20:19:43.792Z,79.54
2022-12-20T20:22:12.489Z,78.93
2022-12-20T20:24:42.781Z,79.87
2022-12-20T20:27:11.122Z,79.93
2022-12-20T20:29:39.513Z,79.93
2022-12-20T20:32:08.620Z,80.22
2022-12-20T20:34:37.114Z,79.30
2022-12-20T20:37:05.456Z,79.96
2022-12-20T20:39:34.023Z,80.32
2022-12-20T20:42:02.308Z,80.59
2022-12-20T20:44:30.609Z,80.37
2022-12-20T20:46:59.044Z,80.56
2022-12-20T20:49:27.387Z,80.29
2022-12-20T20:51:55.691Z,80.16
2022-12-20T20:54:24.004Z,80.16
2022-12-20T20:56:52.319Z,80.46
2022-12-20T20:59:22.582Z,80.37
2022-12-20T21:01:51.056Z,80.46
2022-12-20T21:04:19.408Z,81.02
2022-12-20T21:06:48.223Z,81.47
2022-12-20T21:09:16.669Z,81.40
2022-12-20T21:11:45.725Z,81.18
2022-12-20T21:14:14.357Z,81.39
2022-12-20T21:16:42.791Z,81.18
2022-12-20T21:19:12.362Z,82.28
2022-12-20T21:21:41.021Z,81.92
2022-12-20T21:24:09.712Z,81.58
2022-12-20T21:26:38.860Z,80.50
2022-12-20T21:29:07.225Z,79.26
2022-12-20T21:31:35.737Z,78.87
2022-12-20T21:34:04.734Z,78.31
2022-12-20T21:36:33.094Z,78.19
2022-12-20T21:39:01.460Z,77.64
2022-12-20T21:41:30.305Z,76.96
2022-12-20T21:44:00.406Z,76.81
2022-12-20T21:46:30.580Z,76.66
2022-12-20T21:49:01.976Z,76.86
2022-12-20T21:51:31.604Z,76.74
2022-12-20T21:54:02.049Z,77.96
2022-12-20T21:56:33.654Z,78.12
2022-12-20T21:59:03.287Z,78.09
2022-12-20T22:01:32.324Z,77.83
2022-12-20T22:04:03.654Z,78.17
2022-12-20T22:06:32.428Z,78.12
2022-12-20T22:09:02.204Z,77.51
2022-12-20T22:11:30.611Z,77.93
2022-12-20T22:13:58.982Z,79.01
2022-12-20T22:16:33.163Z,78.90
2022-12-20T22:19:02.522Z,79.30
2022-12-20T22:21:32.981Z,78.96
2022-12-20T22:24:02.933Z,79.45
2022-12-20T22:26:34.129Z,79.77
2022-12-20T22:29:05.541Z,79.30
2022-12-20T22:31:34.327Z,79.51
2022-12-20T22:34:03.041Z,79.96
2022-12-20T22:36:31.472Z,79.22
2022-12-20T22:39:00.114Z,79.35
2022-12-20T22:41:35.610Z,79.03
2022-12-20T22:44:04.802Z,76.67
2022-12-20T22:46:33.784Z,78.59
2022-12-20T22:49:02.375Z,79.03
2022-12-20T22:51:34.116Z,79.55
2022-12-20T22:54:02.433Z,79.94
2022-12-20T22:56:30.798Z,80.54
2022-12-20T22:58:59.253Z,80.10
2022-12-20T23:01:27.906Z,80.68
2022-12-20T23:03:56.432Z,82.00
2022-12-20T23:06:24.824Z,81.63
2022-12-20T23:08:53.133Z,82.10
2022-12-20T23:11:43.445Z,81.44
2022-12-20T23:14:38.551Z,80.83
2022-12-20T23:17:07.999Z,80.78
2022-12-20T23:19:54.929Z,80.94
2022-12-20T23:22:41.171Z,80.19
2022-12-20T23:25:12.832Z,80.83
2022-12-20T23:27:43.209Z,81.18
2022-12-20T23:30:15.089Z,81.95
2022-12-20T23:32:46.636Z,81.01
2022-12-20T23:35:17.421Z,81.53
2022-12-20T23:37:46.852Z,81.20
2022-12-20T23:40:17.347Z,81.01
2022-12-20T23:42:46.127Z,80.68
2022-12-20T23:45:14.628Z,80.77
2022-12-20T23:47:42.977Z,80.30
2022-12-20T23:50:11.750Z,79.94
2022-12-20T23:52:40.185Z,79.09
2022-12-20T23:55:08.828Z,80.16
2022-12-20T23:57:37.169Z,80.16
